createdAt,value
2023-04-10T00:02:02.927Z,100557.94
2023-04-10T00:04:40.784Z,100557.91
2023-04-10T00:07:07.933Z,100558.10
2023-04-10T00:09:35.093Z,100557.45
2023-04-10T00:12:11.449Z,100556.09
2023-04-10T00:14:38.802Z,100554.70
2023-04-10T00:17:07.495Z,100556.70
2023-04-10T00:19:34.833Z,100557.45
2023-04-10T00:22:08.613Z,100556.80
2023-04-10T00:24:40.066Z,100554.77
2023-04-10T00:27:07.661Z,100549.71
2023-04-10T00:29:34.704Z,100553.59
2023-04-10T00:32:02.417Z,100551.27
2023-04-10T00:34:30.667Z,100552.33
2023-04-10T00:37:01.334Z,100547.41
2023-04-10T00:39:28.904Z,100549.94
2023-04-10T00:41:59.902Z,100548.30
2023-04-10T00:44:27.529Z,100557.02
2023-04-10T00:46:54.677Z,100562.48
2023-04-10T00:49:22.068Z,100561.60
2023-04-10T00:51:49.292Z,100562.48
2023-04-10T00:54:19.198Z,100565.33
2023-04-10T00:56:47.282Z,100560.95
2023-04-10T00:59:14.347Z,100558.30
2023-04-10T01:01:41.583Z,100557.84
2023-04-10T01:04:13.302Z,100560.64
2023-04-10T01:07:13.652Z,100556.83
2023-04-10T01:09:47.797Z,100556.88
2023-04-10T01:12:30.168Z,100554.27
2023-04-10T01:15:19.281Z,100549.35
2023-04-10T01:17:56.455Z,100548.61
2023-04-10T01:20:25.857Z,100549.73
2023-04-10T01:23:05.672Z,100549.14
2023-04-10T01:26:03.437Z,100545.03
2023-04-10T01:28:41.087Z,100546.53
2023-04-10T01:31:10.614Z,100542.40
2023-04-10T01:33:43.184Z,100539.81
2023-04-10T01:36:10.957Z,100536.58
2023-04-10T01:38:40.789Z,100537.75
2023-04-10T01:41:07.996Z,100534.80
2023-04-10T01:43:36.386Z,100536.41
2023-04-10T01:46:03.709Z,100537.67
2023-04-10T01:48:31.049Z,100538.42
2023-04-10T01:50:58.101Z,100536.98
2023-04-10T01:53:25.870Z,100537.41
2023-04-10T01:55:53.856Z,100542.08
2023-04-10T01:58:21.833Z,100546.24
2023-04-10T02:00:49.437Z,100550.92
2023-04-10T02:03:17.599Z,100556.05
2023-04-10T02:05:49.244Z,100551.61
2023-04-10T02:08:19.292Z,100554.56
2023-04-10T02:10:54.545Z,100557.83
2023-04-10T09:57:20.308Z,100509.30
2023-04-10T09:59:51.513Z,100521.46
2023-04-10T10:02:19.908Z,100512.08
2023-04-10T10:04:48.340Z,100503.23
2023-04-10T10:07:22.568Z,100492.69
2023-04-10T10:09:52.329Z,100491.02
2023-04-10T10:12:27.492Z,100501.81
2023-04-10T10:15:01.398Z,100497.81
2023-04-10T10:17:32.338Z,100489.82
2023-04-10T10:20:08.736Z,100495.05
2023-04-10T10:22:38.918Z,100489.14
2023-04-10T10:25:07.226Z,100486.83
2023-04-10T10:27:38.433Z,100484.48
2023-04-10T10:30:20.205Z,100482.55
2023-04-10T10:32:54.363Z,100481.14
2023-04-10T10:35:23.028Z,100488.54
2023-04-10T10:37:52.721Z,100487.67
2023-04-10T10:40:30.479Z,100485.42
2023-04-10T10:43:27.536Z,100480.36
2023-04-10T10:46:07.567Z,100479.61
2023-04-10T10:48:35.399Z,100479.66
2023-04-10T10:51:03.712Z,100477.08
2023-04-10T10:53:36.219Z,100470.70
2023-04-10T10:56:19.519Z,100473.42
2023-04-10T10:59:03.850Z,100468.46
2023-04-10T11:01:31.386Z,100466.80
2023-04-10T11:04:00.397Z,100463.02
2023-04-10T11:06:51.801Z,100461.86
2023-04-10T11:09:51.339Z,100467.37
2023-04-10T11:12:22.654Z,100466.65
2023-04-10T11:15:03.527Z,100453.49
2023-04-10T11:17:54.315Z,100462.42
2023-04-10T11:20:27.519Z,100447.89
2023-04-10T11:23:09.677Z,100450.70
2023-04-10T11:25:50.739Z,100448.64
2023-04-10T11:28:33.881Z,100444.15
2023-04-10T11:31:22.282Z,100443.59
2023-04-10T11:41:32.919Z,100423.44
2023-04-10T11:44:01.364Z,100424.95
2023-04-10T11:46:29.228Z,100431.46
2023-04-10T11:48:58.650Z,100431.02
2023-04-10T11:51:27.574Z,100431.18
2023-04-10T11:54:16.713Z,100415.20
2023-04-10T11:56:46.792Z,100415.14
2023-04-10T11:59:16.246Z,100413.15
2023-04-10T12:01:44.064Z,100409.63
2023-04-10T12:04:16.615Z,100404.20
2023-04-10T12:06:53.129Z,100400.07
2023-04-10T12:09:21.420Z,100400.04
2023-04-10T12:11:53.160Z,100392.54
2023-04-10T12:14:24.542Z,100393.76
2023-04-10T12:16:53.052Z,100383.92
2023-04-10T12:19:23.943Z,100384.25
2023-04-10T12:21:51.645Z,100388.67
2023-04-10T12:24:44.572Z,100390.77
2023-04-10T12:27:30.961Z,100384.27
2023-04-10T12:29:58.607Z,100380.65
2023-04-10T12:32:27.509Z,100375.58
2023-04-10T12:35:03.697Z,100371.29
2023-04-10T12:37:50.858Z,100372.96
2023-04-10T12:40:18.788Z,100372.86
2023-04-10T12:42:46.089Z,100368.21
2023-04-10T12:45:14.870Z,100372.02
2023-04-10T12:47:47.283Z,100371.50
2023-04-10T12:50:19.209Z,100367.21
2023-04-10T12:53:08.171Z,100365.88
2023-04-10T12:55:35.535Z,100367.13
2023-04-10T12:58:18.354Z,100367.20
2023-04-10T13:00:45.910Z,100363.69
2023-04-10T13:03:13.474Z,100366.06
2023-04-10T13:05:43.001Z,100364.95
2023-04-10T13:08:11.288Z,100356.20
2023-04-10T13:10:38.429Z,100353.90
2023-04-10T13:13:07.406Z,100356.84
2023-04-10T13:15:34.933Z,100350.40
2023-04-10T13:18:04.308Z,100343.94
2023-04-10T13:20:37.229Z,100339.79
2023-04-10T13:23:04.980Z,100339.25
2023-04-10T13:25:33.872Z,100343.09
2023-04-10T13:28:01.948Z,100341.20
2023-04-10T13:30:29.749Z,100340.23
2023-04-10T13:32:57.105Z,100332.07
2023-04-10T13:35:24.379Z,100330.03
2023-04-10T13:37:54.406Z,100321.42
2023-04-10T13:40:27.885Z,100322.96
2023-04-10T13:42:55.211Z,100318.52
2023-04-10T13:45:22.552Z,100319.33
2023-04-10T13:47:51.077Z,100311.08
2023-04-10T13:50:18.305Z,100314.92
2023-04-10T13:52:52.146Z,100316.05
2023-04-10T13:55:20.887Z,100313.60
2023-04-10T13:57:48.259Z,100306.86
2023-04-10T14:00:16.487Z,100309.52
2023-04-10T14:02:55.269Z,100307.91
2023-04-10T14:05:22.994Z,100308.55
2023-04-10T14:07:52.092Z,100303.69
2023-04-10T14:10:21.112Z,100308.73
2023-04-10T14:12:48.063Z,100309.39
2023-04-10T14:15:15.781Z,100307.27
2023-04-10T14:17:43.716Z,100308.73
2023-04-10T14:20:14.346Z,100311.98
2023-04-10T14:22:41.682Z,100310.66
2023-04-10T14:25:13.698Z,100307.55
2023-04-10T14:27:42.573Z,100305.70
2023-04-10T14:30:10.769Z,100302.50
2023-04-10T14:32:41.875Z,100298.49
2023-04-10T14:35:10.800Z,100301.48
2023-04-10T14:37:38.668Z,100303.13
2023-04-10T14:40:07.203Z,100301.30
2023-04-10T14:42:35.147Z,100302.26
2023-04-10T14:45:02.517Z,100301.07
2023-04-10T14:47:29.852Z,100303.58
2023-04-10T14:49:57.173Z,100304.06
2023-04-10T14:52:24.423Z,100298.77
2023-04-10T14:54:51.379Z,100300.24
2023-04-10T14:57:19.765Z,100288.71
2023-04-10T14:59:48.398Z,100287.91
2023-04-10T15:02:16.337Z,100284.02
2023-04-10T15:04:47.862Z,100282.49
2023-04-10T15:07:14.909Z,100282.36
2023-04-10T15:09:43.356Z,100287.23
2023-04-10T15:12:11.578Z,100288.23
2023-04-10T15:14:40.350Z,100283.63
2023-04-10T15:17:08.026Z,100282.17
2023-04-10T15:19:42.048Z,100285.78
2023-04-10T15:22:09.216Z,100284.40
2023-04-10T15:24:46.937Z,100281.33
2023-04-10T15:27:16.914Z,100284.84
2023-04-10T15:29:44.068Z,100280.11
2023-04-10T15:32:15.638Z,100283.80
2023-04-10T15:34:45.188Z,100281.27
2023-04-10T15:37:12.642Z,100285.17
2023-04-10T15:39:44.815Z,100290.11
2023-04-10T15:42:11.873Z,100288.00
2023-04-10T15:44:39.032Z,100288.23
2023-04-10T15:47:06.038Z,100285.83
2023-04-10T15:49:42.833Z,100282.42
2023-04-10T15:52:10.307Z,100281.80
2023-04-10T15:54:38.967Z,100282.49
2023-04-10T15:57:14.006Z,100278.93
2023-04-10T15:59:42.424Z,100274.66
2023-04-10T16:02:09.849Z,100273.44
2023-04-10T16:04:47.967Z,100269.34
2023-04-10T16:07:16.542Z,100267.81
2023-04-10T16:09:44.031Z,100269.64
2023-04-10T16:12:14.726Z,100264.64
2023-04-10T16:14:43.308Z,100274.70
2023-04-10T16:17:10.560Z,100274.69
2023-04-10T16:19:39.067Z,100274.39
2023-04-10T16:22:06.702Z,100275.69
2023-04-10T16:24:34.009Z,100272.75
2023-04-10T16:27:02.440Z,100275.27
2023-04-10T16:29:30.155Z,100277.45
2023-04-10T16:31:57.367Z,100282.29
2023-04-10T16:34:24.622Z,100278.75
2023-04-10T16:36:52.115Z,100283.23
2023-04-10T16:39:19.981Z,100279.16
2023-04-10T16:41:48.027Z,100281.02
2023-04-10T16:44:16.272Z,100283.69
2023-04-10T16:46:47.468Z,100285.81
2023-04-10T16:49:15.557Z,100280.98
2023-04-10T16:51:42.759Z,100281.52
2023-04-10T16:54:10.698Z,100281.34
2023-04-10T16:56:37.899Z,100279.25
2023-04-10T16:59:05.361Z,100281.30
2023-04-10T17:01:35.478Z,100284.97
2023-04-10T17:04:02.951Z,100282.08
2023-04-10T17:06:31.610Z,100284.88
2023-04-10T17:09:00.449Z,100288.81
2023-04-10T17:11:27.723Z,100284.83
2023-04-10T17:13:54.801Z,100291.84
2023-04-10T17:16:22.078Z,100290.11
2023-04-10T17:18:49.267Z,100299.02
2023-04-10T17:21:16.688Z,100294.25
2023-04-10T17:23:49.816Z,100300.40
2023-04-10T17:26:17.472Z,100297.17
2023-04-10T17:28:46.590Z,100295.94
2023-04-10T17:31:17.262Z,100295.92
2023-04-10T17:33:44.467Z,100290.39
2023-04-10T17:36:12.631Z,100288.77
2023-04-10T17:38:42.178Z,100288.53
2023-04-10T17:41:09.815Z,100284.61
2023-04-10T17:43:38.801Z,100277.98
2023-04-10T17:46:06.837Z,100282.12
2023-04-10T17:48:35.309Z,100280.45
2023-04-10T17:51:07.489Z,100278.27
2023-04-10T17:53:34.760Z,100272.86
2023-04-10T17:56:02.955Z,100269.40
2023-04-10T17:58:31.130Z,100270.38
2023-04-10T18:00:59.239Z,100274.89
2023-04-10T18:03:27.926Z,100278.31
2023-04-10T18:05:55.754Z,100274.81
2023-04-10T18:08:24.362Z,100275.25
2023-04-10T18:10:51.559Z,100272.39
2023-04-10T18:13:19.144Z,100277.25
2023-04-10T18:15:49.050Z,100274.41
2023-04-10T18:18:16.799Z,100273.02
2023-04-10T18:20:45.312Z,100269.73
2023-04-10T18:23:12.759Z,100272.48
2023-04-10T18:25:40.038Z,100272.57
2023-04-10T18:28:15.016Z,100272.29
2023-04-10T18:30:43.962Z,100272.24
2023-04-10T18:33:11.913Z,100268.34
2023-04-10T18:35:40.644Z,100269.73
2023-04-10T18:38:08.436Z,100267.29
2023-04-10T18:40:38.365Z,100266.84
2023-04-10T18:43:05.942Z,100267.01
2023-04-10T18:45:35.315Z,100271.63
2023-04-10T18:48:03.285Z,100265.23
2023-04-10T18:50:31.462Z,100263.11
2023-04-10T18:53:01.987Z,100254.64
2023-04-10T18:55:30.484Z,100250.14
2023-04-10T18:57:57.546Z,100251.40
2023-04-10T19:00:24.818Z,100248.44
2023-04-10T19:02:54.178Z,100252.61
2023-04-10T19:05:21.311Z,100254.89
2023-04-10T19:08:00.752Z,100256.96
2023-04-10T19:10:32.221Z,100257.79
2023-04-10T19:13:05.597Z,100258.07
2023-04-10T19:15:41.935Z,100258.52
2023-04-10T19:18:09.322Z,100257.90
2023-04-10T19:20:50.413Z,100255.97
2023-04-10T19:23:22.731Z,100255.37
2023-04-10T19:25:54.995Z,100254.56
2023-04-10T19:28:23.241Z,100254.75
2023-04-10T19:31:10.661Z,100249.36
2023-04-10T19:33:39.376Z,100255.16
2023-04-10T19:36:08.443Z,100253.89
2023-04-10T19:38:36.124Z,100255.58
2023-04-10T19:41:12.647Z,100256.56
2023-04-10T19:43:40.832Z,100255.55
2023-04-10T19:46:21.908Z,100257.64
2023-04-10T19:48:49.709Z,100253.67
2023-04-10T19:51:16.851Z,100255.56
2023-04-10T20:01:06.530Z,100254.33
2023-04-10T20:03:35.904Z,100251.14
2023-04-10T20:06:03.708Z,100253.75
2023-04-10T20:08:35.868Z,100259.05
2023-04-10T20:11:06.816Z,100264.29
2023-04-10T20:13:35.034Z,100262.02
2023-04-10T20:16:07.834Z,100263.46
2023-04-10T20:18:36.346Z,100264.31
2023-04-10T20:21:04.941Z,100260.36
2023-04-10T20:23:34.154Z,100255.54
2023-04-10T20:26:01.425Z,100254.37
2023-04-10T20:28:28.731Z,100254.33
2023-04-10T20:30:55.908Z,100257.74
2023-04-10T20:33:24.596Z,100254.42
2023-04-10T20:35:52.901Z,100249.60
2023-04-10T20:38:21.361Z,100251.73
2023-04-10T20:40:48.776Z,100253.11
2023-04-10T20:43:16.242Z,100251.99
2023-04-10T20:45:44.167Z,100248.77
2023-04-10T20:48:11.503Z,100249.55
2023-04-10T20:50:46.114Z,100250.05
2023-04-10T20:53:13.749Z,100242.79
2023-04-10T20:55:41.325Z,100238.73
2023-04-10T20:58:08.588Z,100238.84
2023-04-10T21:00:36.065Z,100238.94
2023-04-10T21:03:04.122Z,100239.14
2023-04-10T21:05:31.721Z,100234.91
2023-04-10T21:07:59.618Z,100229.08
2023-04-10T21:10:26.925Z,100228.44
2023-04-10T21:12:54.019Z,100228.00
2023-04-10T21:15:22.710Z,100225.13
2023-04-10T21:17:49.743Z,100223.73
2023-04-10T21:20:17.321Z,100220.40
2023-04-10T21:22:44.493Z,100220.67
2023-04-10T21:25:11.812Z,100221.04
2023-04-10T21:27:39.207Z,100219.33
2023-04-10T21:30:08.020Z,100218.43
2023-04-10T21:32:35.733Z,100218.91
2023-04-10T21:35:03.597Z,100219.91
2023-04-10T21:37:31.268Z,100217.82
2023-04-10T21:39:58.543Z,100214.98
2023-04-10T21:42:26.632Z,100216.11
2023-04-10T21:44:54.721Z,100211.45
2023-04-10T21:47:21.999Z,100215.73
2023-04-10T21:49:49.830Z,100212.67
2023-04-10T21:52:19.832Z,100211.11
2023-04-10T21:54:47.100Z,100212.11
2023-04-10T21:57:14.236Z,100210.45
2023-04-10T21:59:41.432Z,100206.11
2023-04-10T22:02:08.532Z,100206.81
2023-04-10T22:04:41.480Z,100207.02
2023-04-10T22:07:15.073Z,100198.98
2023-04-10T22:09:42.113Z,100197.16
2023-04-10T22:14:21.485Z,100190.67
2023-04-10T22:16:49.164Z,100186.73
2023-04-10T22:19:16.370Z,100181.48
2023-04-10T22:21:43.426Z,100176.02
2023-04-10T22:24:11.124Z,100173.30
2023-04-10T22:26:38.334Z,100168.14
2023-04-10T22:29:07.861Z,100168.01
2023-04-10T22:31:35.123Z,100169.78
2023-04-10T22:34:02.245Z,100170.42
2023-04-10T22:36:36.000Z,100165.92
2023-04-10T22:39:03.476Z,100166.23
2023-04-10T22:41:31.984Z,100162.93
2023-04-10T22:43:59.355Z,100164.11
2023-04-10T22:46:32.008Z,100162.52
2023-04-10T22:48:59.169Z,100164.59
2023-04-10T22:51:26.877Z,100163.22
2023-04-10T22:53:54.526Z,100165.54
2023-04-10T22:56:26.345Z,100165.02
2023-04-10T22:58:55.474Z,100159.62
2023-04-10T23:01:22.797Z,100152.89
2023-04-10T23:03:53.906Z,100150.09
2023-04-10T23:06:22.030Z,100144.22
2023-04-10T23:08:51.338Z,100143.81
2023-04-10T23:11:18.455Z,100146.26
2023-04-10T23:13:47.196Z,100143.72
2023-04-10T23:16:15.241Z,100140.23
2023-04-10T23:18:42.139Z,100135.85
2023-04-10T23:21:10.743Z,100135.55
2023-04-10T23:23:38.265Z,100133.74
2023-04-10T23:26:05.424Z,100130.58
2023-04-10T23:28:33.344Z,100127.99
2023-04-10T23:31:00.427Z,100123.47
2023-04-10T23:33:27.353Z,100126.31
2023-04-10T23:35:57.663Z,100123.82
2023-04-10T23:38:24.961Z,100124.14
2023-04-10T23:40:52.357Z,100119.74
2023-04-10T23:43:19.157Z,100116.41
2023-04-10T23:45:46.093Z,100114.42
2023-04-10T23:48:15.112Z,100111.94
2023-04-10T23:50:42.030Z,100112.91
2023-04-10T23:53:09.097Z,100114.33
2023-04-10T23:55:36.288Z,100113.67
2023-04-10T23:58:03.565Z,100114.63
